Corewise Ol — 3FEX6 — position and weather

sailwx.info

Track history (hours):
 
Tides and Currents Weather Stations Pressure Air Temp Water Temp Dewpoint Dewpoint Depression Visibility Wind Speed Wind Dir Waves Ship Positions

Corewise Ol

Last reported at 2018-Jun-24 13:02 UTC. Time now 2018-Jun-25 11:44 UTC.
Position N 29°20' W 094°46'.

Length 178 m; draft 10.8 m.

Type: Cargo ship. MMSI: 352292000.

Date/timePositionNaut miles runAvg speedWind from/ knotsBaromVisibWave heightAir tempDewpointWater temp
2018-Jun-24 13:02N 29°20' W 094°46'0 8.8
2018-Jun-24 13:01N 29°20' W 094°46'3 5.0
2018-Jun-24 12:27N 29°19' W 094°49'0 0.6
2018-Jun-24 11:56N 29°18' W 094°49'0 0.0
2018-Jun-23 22:53N 29°18' W 094°49'0 0.0
2018-Jun-23 22:29N 29°18' W 094°49'0 0.0
2018-Jun-23 21:59N 29°18' W 094°49'0 0.0
2018-Jun-23 21:29N 29°18' W 094°49'0 0.0
2018-Jun-23 20:59N 29°18' W 094°49'0 0.0
2018-Jun-23 20:29N 29°18' W 094°49'0 0.0
2018-Jun-23 19:59N 29°18' W 094°49'0 0.0
2018-Jun-23 19:23N 29°18' W 094°49'0 0.0
2018-Jun-23 18:59N 29°18' W 094°49'0 0.0
2018-Jun-23 18:29N 29°18' W 094°49'0 0.0
2018-Jun-23 17:59N 29°18' W 094°49'0 0.0
2018-Jun-23 17:23N 29°18' W 094°49'0 0.0
2018-Jun-23 16:59N 29°18' W 094°49'0 0.0
2018-Jun-23 16:30N 29°18' W 094°49'0 0.9
2018-Jun-23 16:00N 29°19' W 094°49'3 5.9
2018-Jun-23 15:30N 29°20' W 094°46'611.0
2018-Jun-23 15:00N 29°20' W 094°40'4 8.9
2018-Jun-23 14:31N 29°16' W 094°37'2 4.8
2018-Jun-23 14:00N 29°14' W 094°38'2 4.6
2018-Jun-23 13:30N 29°12' W 094°40'0 0.2
2018-Jun-23 13:00N 29°12' W 094°40'0 0.0
2018-Jun-23 12:30N 29°12' W 094°40'0 0.0
2018-Jun-23 12:00N 29°12' W 094°40'0 0.0
2018-Jun-23 11:30N 29°12' W 094°40'0 0.0
2018-Jun-23 11:00N 29°12' W 094°40'0 0.0
2018-Jun-23 10:30N 29°12' W 094°40'0 0.0
2018-Jun-23 09:54N 29°12' W 094°40'0 0.0
2018-Jun-23 09:30N 29°12' W 094°40'0 0.0
2018-Jun-23 09:00N 29°12' W 094°40'0 0.0
2018-Jun-23 08:30N 29°12' W 094°40'0 0.0
2018-Jun-23 08:00N 29°12' W 094°40'0 0.0
2018-Jun-23 07:30N 29°12' W 094°40'0 0.0
2018-Jun-23 06:48N 29°12' W 094°40'0 0.0
2018-Jun-23 06:30N 29°12' W 094°40'0 0.0
2018-Jun-23 06:00N 29°12' W 094°40'0 0.0
2018-Jun-23 05:30N 29°12' W 094°40'0 0.0
2018-Jun-23 05:00N 29°12' W 094°40'0 0.0
2018-Jun-23 04:24N 29°12' W 094°40'0 0.0
2018-Jun-23 04:00N 29°12' W 094°40'0 0.0
2018-Jun-23 03:30N 29°12' W 094°40'0 0.0
2018-Jun-23 03:00N 29°12' W 094°40'0 0.0
2018-Jun-23 02:30N 29°12' W 094°40'0 0.0
2018-Jun-23 02:00N 29°12' W 094°40'0 0.0
2018-Jun-23 01:21N 29°12' W 094°40'0 0.0
2018-Jun-23 01:00N 29°12' W 094°40'0 0.0
2018-Jun-23 00:30N 29°12' W 094°40'0 0.0
2018-Jun-22 23:57N 29°12' W 094°40'0 0.0
2018-Jun-22 23:27N 29°12' W 094°40'0 0.0
2018-Jun-22 23:00N 29°12' W 094°40'0 0.0
2018-Jun-22 22:27N 29°12' W 094°40'0 0.1
2018-Jun-22 22:00N 29°12' W 094°40'0 0.2
2018-Jun-22 21:30N 29°12' W 094°40'0 0.1
2018-Jun-22 21:00N 29°12' W 094°40'0 0.0
2018-Jun-22 19:39N 29°12' W 094°40'0 0.1
2018-Jun-22 19:30N 29°12' W 094°40'0 0.0
2018-Jun-22 19:00N 29°12' W 094°40'0 0.0
2018-Jun-22 18:12N 29°12' W 094°40'0 0.0
2018-Jun-22 17:51N 29°12' W 094°40'0 0.1
2018-Jun-22 17:27N 29°12' W 094°40'0 0.2
2018-Jun-22 17:00N 29°12' W 094°40'0 0.0
2018-Jun-22 16:30N 29°12' W 094°40'0 0.0
2018-Jun-22 16:00N 29°12' W 094°40'0 0.0
2018-Jun-22 15:30N 29°12' W 094°40'0 0.0
2018-Jun-22 15:00N 29°12' W 094°40'0 0.1
2018-Jun-22 14:27N 29°12' W 094°40'0 0.1
2018-Jun-22 14:00N 29°12' W 094°40'0 0.0
2018-Jun-22 13:24N 29°12' W 094°40'0 0.0
2018-Jun-22 13:00N 29°12' W 094°40'0 0.1
2018-Jun-22 12:24N 29°12' W 094°40'0 0.0
2018-Jun-22 11:45N 29°12' W 094°40'0 0.0
2018-Jun-22 11:30N 29°12' W 094°40'0 0.0
2018-Jun-22 10:36N 29°12' W 094°40'0 0.1
2018-Jun-22 10:30N 29°12' W 094°40'0 0.0
2018-Jun-22 09:51N 29°12' W 094°40'0 0.0
2018-Jun-22 09:30N 29°12' W 094°40'0 0.0
2018-Jun-22 08:39N 29°12' W 094°40'0 0.1
2018-Jun-22 08:30N 29°12' W 094°40'0 0.0
2018-Jun-22 08:00N 29°12' W 094°40'0 0.0
2018-Jun-22 07:30N 29°12' W 094°40'0 0.0
2018-Jun-22 07:00N 29°12' W 094°40'0 0.0
2018-Jun-22 06:24N 29°12' W 094°40'0 0.0
2018-Jun-22 06:00N 29°12' W 094°40'0 0.0
2018-Jun-22 05:30N 29°12' W 094°40'0 0.0
2018-Jun-22 05:00N 29°12' W 094°40'0 0.0
2018-Jun-22 04:30N 29°12' W 094°40'0 0.0
2018-Jun-22 04:00N 29°12' W 094°40'0 0.0
2018-Jun-22 03:30N 29°12' W 094°40'0 0.0
2018-Jun-22 03:00N 29°12' W 094°40'0 0.0
2018-Jun-22 02:30N 29°12' W 094°40'0 0.0
2018-Jun-22 01:48N 29°12' W 094°40'0 0.0
2018-Jun-22 01:15N 29°12' W 094°40'0 0.0
2018-Jun-22 01:00N 29°12' W 094°40'0 0.0
2018-Jun-22 00:30N 29°12' W 094°40'0 0.0
2018-Jun-22 00:00N 29°12' W 094°40'0 0.0
2018-Jun-21 23:30N 29°12' W 094°40'0 0.0
2018-Jun-21 23:00N 29°12' W 094°40'0 0.0
2018-Jun-21 22:30N 29°12' W 094°40'0 0.0
2018-Jun-21 22:00N 29°12' W 094°40'0 0.0
2018-Jun-21 21:21N 29°12' W 094°40'0 0.0
2018-Jun-21 20:57N 29°12' W 094°40'0 0.0
2018-Jun-21 20:30N 29°12' W 094°40'0 0.0
2018-Jun-21 19:57N 29°12' W 094°40'0 0.0
2018-Jun-21 19:30N 29°12' W 094°40'0 0.0
2018-Jun-21 18:51N 29°12' W 094°40'0 0.0
2018-Jun-21 18:30N 29°12' W 094°40'0 0.0
2018-Jun-21 17:54N 29°12' W 094°40'0 0.0
2018-Jun-21 17:30N 29°12' W 094°40'0 0.0
2018-Jun-21 17:00N 29°12' W 094°40'0 0.0
2018-Jun-21 16:30N 29°12' W 094°40'0 0.0
2018-Jun-21 16:00N 29°12' W 094°40'0 0.0
2018-Jun-21 15:30N 29°12' W 094°40'0 0.0
2018-Jun-21 15:00N 29°12' W 094°40'0 0.0
2018-Jun-21 14:30N 29°12' W 094°40'0 0.0
2018-Jun-21 14:00N 29°12' W 094°40'0 0.0
2018-Jun-21 13:30N 29°12' W 094°40'0 0.0
2018-Jun-21 13:00N 29°12' W 094°40'0 0.0
2018-Jun-21 12:30N 29°12' W 094°40'0 0.0
2018-Jun-21 12:00N 29°12' W 094°40'0 0.0
2018-Jun-21 11:30N 29°12' W 094°40'0 0.0
2018-Jun-21 10:57N 29°12' W 094°40'0 0.0
2018-Jun-21 10:06N 29°12' W 094°40'0 0.1
2018-Jun-21 10:00N 29°12' W 094°40'0 0.0
2018-Jun-21 08:45N 29°12' W 094°40'0 0.0
2018-Jun-21 08:30N 29°12' W 094°40'0 0.0
2018-Jun-21 07:54N 29°12' W 094°40'0 0.0
2018-Jun-21 07:30N 29°12' W 094°40'0 0.1
2018-Jun-21 07:00N 29°12' W 094°40'0 0.0
2018-Jun-21 06:27N 29°12' W 094°40'0 0.0
2018-Jun-21 06:00N 29°12' W 094°40'0 0.0
2018-Jun-21 05:30N 29°12' W 094°40'0 0.0
2018-Jun-21 05:00N 29°12' W 094°40'0 0.0
2018-Jun-21 04:30N 29°12' W 094°40'0 0.0
2018-Jun-21 04:00N 29°12' W 094°40'0 0.0
2018-Jun-21 03:24N 29°12' W 094°40'0 0.0
2018-Jun-21 03:00N 29°12' W 094°40'0 0.1
2018-Jun-21 02:30N 29°12' W 094°40'0 0.1
2018-Jun-21 01:57N 29°12' W 094°40'0 0.2
2018-Jun-21 01:27N 29°12' W 094°40'0 0.2
2018-Jun-21 01:00N 29°12' W 094°40'0 0.0
2018-Jun-21 00:24N 29°12' W 094°40'0 0.0
2018-Jun-20 23:57N 29°12' W 094°40'0 0.0
2018-Jun-20 23:30N 29°12' W 094°40'0 0.0
2018-Jun-20 23:00N 29°12' W 094°40'0 0.0
2018-Jun-20 22:30N 29°12' W 094°40'0 0.1
2018-Jun-20 21:48N 29°12' W 094°40'0 0.0
2018-Jun-20 21:24N 29°12' W 094°40'0 0.0
2018-Jun-20 20:48N 29°12' W 094°40'0 0.0
2018-Jun-20 20:30N 29°12' W 094°40'0 0.0
2018-Jun-20 19:45N 29°12' W 094°40'0 0.1
2018-Jun-20 19:21N 29°12' W 094°40'0 0.0
2018-Jun-20 18:57N 29°12' W 094°40'0 0.0
2018-Jun-20 17:33N 29°12' W 094°40'0 0.0
2018-Jun-20 17:06N 29°12' W 094°40'0 0.0
2018-Jun-20 16:54N 29°12' W 094°40'0 0.0
2018-Jun-20 16:21N 29°12' W 094°40'0 0.0
2018-Jun-20 15:18N 29°12' W 094°40'0 0.0
2018-Jun-20 14:48N 29°12' W 094°40'0 0.0
2018-Jun-20 14:30N 29°12' W 094°40'0 0.0
2018-Jun-20 14:00N 29°12' W 094°40'0 0.0
2018-Jun-20 13:30N 29°12' W 094°40'0 0.0
2018-Jun-20 12:48N 29°12' W 094°40'0 0.0
2018-Jun-20 12:30N 29°12' W 094°40'0 0.0
2018-Jun-20 08:09N 29°12' W 094°40'3 0.5
2018-Jun-20 03:13N 29°14' W 094°38'3 9.2
2018-Jun-20 02:53N 29°16' W 094°35'2211.7
2018-Jun-20 00:58N 29°04' W 094°14'612.7
2018-Jun-20 00:29N 28°60' W 094°08'612.4
2018-Jun-20 00:00N 28°57' W 094°02'612.3
2018-Jun-19 23:30N 28°53' W 093°56'49211.9
2018-Jun-18 06:15N 27°41' W 084°44'  
Track history (hours):
 
Tides and Currents Weather Stations Pressure Air Temp Water Temp Dewpoint Dewpoint Depression Visibility Wind Speed Wind Dir Waves Ship Positions

Corewise Ol

Last reported at 2018-Jun-24 13:02 UTC. Time now 2018-Jun-25 11:44 UTC.
Position N 29°20' W 094°46'.

Length 178 m; draft 10.8 m.

Type: Cargo ship. MMSI: 352292000.

Date/timePositionNaut miles runAvg speedWind from/ knotsBaromVisibWave heightAir tempDewpointWater temp
2018-Jun-24 13:02N 29°20' W 094°46'0 8.8
2018-Jun-24 13:01N 29°20' W 094°46'3 5.0
2018-Jun-24 12:27N 29°19' W 094°49'0 0.6
2018-Jun-24 11:56N 29°18' W 094°49'0 0.0
2018-Jun-23 22:53N 29°18' W 094°49'0 0.0
2018-Jun-23 22:29N 29°18' W 094°49'0 0.0
2018-Jun-23 21:59N 29°18' W 094°49'0 0.0
2018-Jun-23 21:29N 29°18' W 094°49'0 0.0
2018-Jun-23 20:59N 29°18' W 094°49'0 0.0
2018-Jun-23 20:29N 29°18' W 094°49'0 0.0
2018-Jun-23 19:59N 29°18' W 094°49'0 0.0
2018-Jun-23 19:23N 29°18' W 094°49'0 0.0
2018-Jun-23 18:59N 29°18' W 094°49'0 0.0
2018-Jun-23 18:29N 29°18' W 094°49'0 0.0
2018-Jun-23 17:59N 29°18' W 094°49'0 0.0
2018-Jun-23 17:23N 29°18' W 094°49'0 0.0
2018-Jun-23 16:59N 29°18' W 094°49'0 0.0
2018-Jun-23 16:30N 29°18' W 094°49'0 0.9
2018-Jun-23 16:00N 29°19' W 094°49'3 5.9
2018-Jun-23 15:30N 29°20' W 094°46'611.0
2018-Jun-23 15:00N 29°20' W 094°40'4 8.9
2018-Jun-23 14:31N 29°16' W 094°37'2 4.8
2018-Jun-23 14:00N 29°14' W 094°38'2 4.6
2018-Jun-23 13:30N 29°12' W 094°40'0 0.2
2018-Jun-23 13:00N 29°12' W 094°40'0 0.0
2018-Jun-23 12:30N 29°12' W 094°40'0 0.0
2018-Jun-23 12:00N 29°12' W 094°40'0 0.0
2018-Jun-23 11:30N 29°12' W 094°40'0 0.0
2018-Jun-23 11:00N 29°12' W 094°40'0 0.0
2018-Jun-23 10:30N 29°12' W 094°40'0 0.0
2018-Jun-23 09:54N 29°12' W 094°40'0 0.0
2018-Jun-23 09:30N 29°12' W 094°40'0 0.0
2018-Jun-23 09:00N 29°12' W 094°40'0 0.0
2018-Jun-23 08:30N 29°12' W 094°40'0 0.0
2018-Jun-23 08:00N 29°12' W 094°40'0 0.0
2018-Jun-23 07:30N 29°12' W 094°40'0 0.0
2018-Jun-23 06:48N 29°12' W 094°40'0 0.0
2018-Jun-23 06:30N 29°12' W 094°40'0 0.0
2018-Jun-23 06:00N 29°12' W 094°40'0 0.0
2018-Jun-23 05:30N 29°12' W 094°40'0 0.0
2018-Jun-23 05:00N 29°12' W 094°40'0 0.0
2018-Jun-23 04:24N 29°12' W 094°40'0 0.0
2018-Jun-23 04:00N 29°12' W 094°40'0 0.0
2018-Jun-23 03:30N 29°12' W 094°40'0 0.0
2018-Jun-23 03:00N 29°12' W 094°40'0 0.0
2018-Jun-23 02:30N 29°12' W 094°40'0 0.0
2018-Jun-23 02:00N 29°12' W 094°40'0 0.0
2018-Jun-23 01:21N 29°12' W 094°40'0 0.0
2018-Jun-23 01:00N 29°12' W 094°40'0 0.0
2018-Jun-23 00:30N 29°12' W 094°40'0 0.0
2018-Jun-22 23:57N 29°12' W 094°40'0 0.0
2018-Jun-22 23:27N 29°12' W 094°40'0 0.0
2018-Jun-22 23:00N 29°12' W 094°40'0 0.0
2018-Jun-22 22:27N 29°12' W 094°40'0 0.1
2018-Jun-22 22:00N 29°12' W 094°40'0 0.2
2018-Jun-22 21:30N 29°12' W 094°40'0 0.1
2018-Jun-22 21:00N 29°12' W 094°40'0 0.0
2018-Jun-22 19:39N 29°12' W 094°40'0 0.1
2018-Jun-22 19:30N 29°12' W 094°40'0 0.0
2018-Jun-22 19:00N 29°12' W 094°40'0 0.0
2018-Jun-22 18:12N 29°12' W 094°40'0 0.0
2018-Jun-22 17:51N 29°12' W 094°40'0 0.1
2018-Jun-22 17:27N 29°12' W 094°40'0 0.2
2018-Jun-22 17:00N 29°12' W 094°40'0 0.0
2018-Jun-22 16:30N 29°12' W 094°40'0 0.0
2018-Jun-22 16:00N 29°12' W 094°40'0 0.0
2018-Jun-22 15:30N 29°12' W 094°40'0 0.0
2018-Jun-22 15:00N 29°12' W 094°40'0 0.1
2018-Jun-22 14:27N 29°12' W 094°40'0 0.1
2018-Jun-22 14:00N 29°12' W 094°40'0 0.0
2018-Jun-22 13:24N 29°12' W 094°40'0 0.0
2018-Jun-22 13:00N 29°12' W 094°40'0 0.1
2018-Jun-22 12:24N 29°12' W 094°40'0 0.0
2018-Jun-22 11:45N 29°12' W 094°40'0 0.0
2018-Jun-22 11:30N 29°12' W 094°40'0 0.0
2018-Jun-22 10:36N 29°12' W 094°40'0 0.1
2018-Jun-22 10:30N 29°12' W 094°40'0 0.0
2018-Jun-22 09:51N 29°12' W 094°40'0 0.0
2018-Jun-22 09:30N 29°12' W 094°40'0 0.0
2018-Jun-22 08:39N 29°12' W 094°40'0 0.1
2018-Jun-22 08:30N 29°12' W 094°40'0 0.0
2018-Jun-22 08:00N 29°12' W 094°40'0 0.0
2018-Jun-22 07:30N 29°12' W 094°40'0 0.0
2018-Jun-22 07:00N 29°12' W 094°40'0 0.0
2018-Jun-22 06:24N 29°12' W 094°40'0 0.0
2018-Jun-22 06:00N 29°12' W 094°40'0 0.0
2018-Jun-22 05:30N 29°12' W 094°40'0 0.0
2018-Jun-22 05:00N 29°12' W 094°40'0 0.0
2018-Jun-22 04:30N 29°12' W 094°40'0 0.0
2018-Jun-22 04:00N 29°12' W 094°40'0 0.0
2018-Jun-22 03:30N 29°12' W 094°40'0 0.0
2018-Jun-22 03:00N 29°12' W 094°40'0 0.0
2018-Jun-22 02:30N 29°12' W 094°40'0 0.0
2018-Jun-22 01:48N 29°12' W 094°40'0 0.0
2018-Jun-22 01:15N 29°12' W 094°40'0 0.0
2018-Jun-22 01:00N 29°12' W 094°40'0 0.0
2018-Jun-22 00:30N 29°12' W 094°40'0 0.0
2018-Jun-22 00:00N 29°12' W 094°40'0 0.0
2018-Jun-21 23:30N 29°12' W 094°40'0 0.0
2018-Jun-21 23:00N 29°12' W 094°40'0 0.0
2018-Jun-21 22:30N 29°12' W 094°40'0 0.0
2018-Jun-21 22:00N 29°12' W 094°40'0 0.0
2018-Jun-21 21:21N 29°12' W 094°40'0 0.0
2018-Jun-21 20:57N 29°12' W 094°40'0 0.0
2018-Jun-21 20:30N 29°12' W 094°40'0 0.0
2018-Jun-21 19:57N 29°12' W 094°40'0 0.0
2018-Jun-21 19:30N 29°12' W 094°40'0 0.0
2018-Jun-21 18:51N 29°12' W 094°40'0 0.0
2018-Jun-21 18:30N 29°12' W 094°40'0 0.0
2018-Jun-21 17:54N 29°12' W 094°40'0 0.0
2018-Jun-21 17:30N 29°12' W 094°40'0 0.0
2018-Jun-21 17:00N 29°12' W 094°40'0 0.0
2018-Jun-21 16:30N 29°12' W 094°40'0 0.0
2018-Jun-21 16:00N 29°12' W 094°40'0 0.0
2018-Jun-21 15:30N 29°12' W 094°40'0 0.0
2018-Jun-21 15:00N 29°12' W 094°40'0 0.0
2018-Jun-21 14:30N 29°12' W 094°40'0 0.0
2018-Jun-21 14:00N 29°12' W 094°40'0 0.0
2018-Jun-21 13:30N 29°12' W 094°40'0 0.0
2018-Jun-21 13:00N 29°12' W 094°40'0 0.0
2018-Jun-21 12:30N 29°12' W 094°40'0 0.0
2018-Jun-21 12:00N 29°12' W 094°40'0 0.0
2018-Jun-21 11:30N 29°12' W 094°40'0 0.0
2018-Jun-21 10:57N 29°12' W 094°40'0 0.0
2018-Jun-21 10:06N 29°12' W 094°40'0 0.1
2018-Jun-21 10:00N 29°12' W 094°40'0 0.0
2018-Jun-21 08:45N 29°12' W 094°40'0 0.0
2018-Jun-21 08:30N 29°12' W 094°40'0 0.0
2018-Jun-21 07:54N 29°12' W 094°40'0 0.0
2018-Jun-21 07:30N 29°12' W 094°40'0 0.1
2018-Jun-21 07:00N 29°12' W 094°40'0 0.0
2018-Jun-21 06:27N 29°12' W 094°40'0 0.0
2018-Jun-21 06:00N 29°12' W 094°40'0 0.0
2018-Jun-21 05:30N 29°12' W 094°40'0 0.0
2018-Jun-21 05:00N 29°12' W 094°40'0 0.0
2018-Jun-21 04:30N 29°12' W 094°40'0 0.0
2018-Jun-21 04:00N 29°12' W 094°40'0 0.0
2018-Jun-21 03:24N 29°12' W 094°40'0 0.0
2018-Jun-21 03:00N 29°12' W 094°40'0 0.1
2018-Jun-21 02:30N 29°12' W 094°40'0 0.1
2018-Jun-21 01:57N 29°12' W 094°40'0 0.2
2018-Jun-21 01:27N 29°12' W 094°40'0 0.2
2018-Jun-21 01:00N 29°12' W 094°40'0 0.0
2018-Jun-21 00:24N 29°12' W 094°40'0 0.0
2018-Jun-20 23:57N 29°12' W 094°40'0 0.0
2018-Jun-20 23:30N 29°12' W 094°40'0 0.0
2018-Jun-20 23:00N 29°12' W 094°40'0 0.0
2018-Jun-20 22:30N 29°12' W 094°40'0 0.1
2018-Jun-20 21:48N 29°12' W 094°40'0 0.0
2018-Jun-20 21:24N 29°12' W 094°40'0 0.0
2018-Jun-20 20:48N 29°12' W 094°40'0 0.0
2018-Jun-20 20:30N 29°12' W 094°40'0 0.0
2018-Jun-20 19:45N 29°12' W 094°40'0 0.1
2018-Jun-20 19:21N 29°12' W 094°40'0 0.0
2018-Jun-20 18:57N 29°12' W 094°40'0 0.0
2018-Jun-20 17:33N 29°12' W 094°40'0 0.0
2018-Jun-20 17:06N 29°12' W 094°40'0 0.0
2018-Jun-20 16:54N 29°12' W 094°40'0 0.0
2018-Jun-20 16:21N 29°12' W 094°40'0 0.0
2018-Jun-20 15:18N 29°12' W 094°40'0 0.0
2018-Jun-20 14:48N 29°12' W 094°40'0 0.0
2018-Jun-20 14:30N 29°12' W 094°40'0 0.0
2018-Jun-20 14:00N 29°12' W 094°40'0 0.0
2018-Jun-20 13:30N 29°12' W 094°40'0 0.0
2018-Jun-20 12:48N 29°12' W 094°40'0 0.0
2018-Jun-20 12:30N 29°12' W 094°40'0 0.0
2018-Jun-20 08:09N 29°12' W 094°40'3 0.5
2018-Jun-20 03:13N 29°14' W 094°38'3 9.2
2018-Jun-20 02:53N 29°16' W 094°35'2211.7
2018-Jun-20 00:58N 29°04' W 094°14'612.7
2018-Jun-20 00:29N 28°60' W 094°08'612.4
2018-Jun-20 00:00N 28°57' W 094°02'612.3
2018-Jun-19 23:30N 28°53' W 093°56'49211.9
2018-Jun-18 06:15N 27°41' W 084°44'  

Dump ship's entire track history